sensor_id;sensor_type;location;lat;lon;timestamp;P1;durP1;ratioP1;P2;durP2;ratioP2
53903;SDS011;39812;52.430;16.936;2024-03-17T00:00:22;8.52;;;3.72;;
53903;SDS011;39812;52.430;16.936;2024-03-17T00:02:48;7.90;;;2.72;;
53903;SDS011;39812;52.430;16.936;2024-03-17T00:05:14;4.43;;;1.80;;
53903;SDS011;39812;52.430;16.936;2024-03-17T00:07:40;9.18;;;2.67;;
53903;SDS011;39812;52.430;16.936;2024-03-17T00:10:06;4.57;;;2.40;;
53903;SDS011;39812;52.430;16.936;2024-03-17T00:12:32;11.48;;;2.45;;
53903;SDS011;39812;52.430;16.936;2024-03-17T00:14:59;5.47;;;2.17;;
53903;SDS011;39812;52.430;16.936;2024-03-17T00:17:24;3.53;;;1.75;;
53903;SDS011;39812;52.430;16.936;2024-03-17T00:19:50;7.90;;;2.22;;
53903;SDS011;39812;52.430;16.936;2024-03-17T00:22:15;5.75;;;1.75;;
53903;SDS011;39812;52.430;16.936;2024-03-17T00:24:42;4.88;;;1.77;;
53903;SDS011;39812;52.430;16.936;2024-03-17T00:27:08;9.20;;;1.85;;
53903;SDS011;39812;52.430;16.936;2024-03-17T00:29:34;8.02;;;1.92;;
53903;SDS011;39812;52.430;16.936;2024-03-17T00:32:00;8.93;;;1.80;;
53903;SDS011;39812;52.430;16.936;2024-03-17T00:34:26;6.03;;;1.90;;
53903;SDS011;39812;52.430;16.936;2024-03-17T00:36:51;12.02;;;2.42;;
53903;SDS011;39812;52.430;16.936;2024-03-17T00:39:17;15.63;;;2.58;;
53903;SDS011;39812;52.430;16.936;2024-03-17T00:41:44;12.07;;;2.13;;
53903;SDS011;39812;52.430;16.936;2024-03-17T00:44:10;5.38;;;2.22;;
53903;SDS011;39812;52.430;16.936;2024-03-17T00:46:36;6.88;;;2.08;;
53903;SDS011;39812;52.430;16.936;2024-03-17T00:49:01;6.63;;;2.35;;
53903;SDS011;39812;52.430;16.936;2024-03-17T00:51:27;7.03;;;2.28;;
53903;SDS011;39812;52.430;16.936;2024-03-17T00:53:53;18.20;;;3.05;;
53903;SDS011;39812;52.430;16.936;2024-03-17T00:56:21;5.50;;;2.45;;
53903;SDS011;39812;52.430;16.936;2024-03-17T00:58:47;8.43;;;1.98;;
53903;SDS011;39812;52.430;16.936;2024-03-17T01:01:16;8.68;;;2.40;;
53903;SDS011;39812;52.430;16.936;2024-03-17T01:03:44;7.40;;;2.13;;
53903;SDS011;39812;52.430;16.936;2024-03-17T01:06:10;8.13;;;2.58;;
53903;SDS011;39812;52.430;16.936;2024-03-17T01:08:36;10.65;;;3.72;;
53903;SDS011;39812;52.430;16.936;2024-03-17T01:11:02;7.05;;;2.25;;
53903;SDS011;39812;52.430;16.936;2024-03-17T01:13:28;4.90;;;2.00;;
53903;SDS011;39812;52.430;16.936;2024-03-17T01:15:53;6.70;;;2.25;;
53903;SDS011;39812;52.430;16.936;2024-03-17T01:18:19;8.82;;;1.88;;
53903;SDS011;39812;52.430;16.936;2024-03-17T01:20:45;4.30;;;2.22;;
53903;SDS011;39812;52.430;16.936;2024-03-17T01:23:11;9.15;;;1.88;;
53903;SDS011;39812;52.430;16.936;2024-03-17T01:25:36;4.78;;;1.40;;
53903;SDS011;39812;52.430;16.936;2024-03-17T01:28:03;7.55;;;1.60;;
53903;SDS011;39812;52.430;16.936;2024-03-17T01:30:29;9.18;;;1.92;;
53903;SDS011;39812;52.430;16.936;2024-03-17T01:32:57;1.88;;;1.05;;
53903;SDS011;39812;52.430;16.936;2024-03-17T01:35:24;4.88;;;1.08;;
53903;SDS011;39812;52.430;16.936;2024-03-17T01:37:51;5.60;;;1.75;;
53903;SDS011;39812;52.430;16.936;2024-03-17T01:40:16;7.43;;;1.50;;
53903;SDS011;39812;52.430;16.936;2024-03-17T01:42:42;6.95;;;1.00;;
53903;SDS011;39812;52.430;16.936;2024-03-17T01:45:20;3.17;;;1.48;;
53903;SDS011;39812;52.430;16.936;2024-03-17T01:47:51;4.03;;;1.45;;
53903;SDS011;39812;52.430;16.936;2024-03-17T01:50:17;5.75;;;2.17;;
53903;SDS011;39812;52.430;16.936;2024-03-17T01:52:49;6.10;;;1.83;;
53903;SDS011;39812;52.430;16.936;2024-03-17T01:55:15;2.28;;;1.10;;
53903;SDS011;39812;52.430;16.936;2024-03-17T01:57:41;6.22;;;1.55;;
53903;SDS011;39812;52.430;16.936;2024-03-17T02:00:08;8.57;;;1.92;;
53903;SDS011;39812;52.430;16.936;2024-03-17T02:02:37;8.50;;;2.05;;
53903;SDS011;39812;52.430;16.936;2024-03-17T02:05:03;5.07;;;1.45;;
53903;SDS011;39812;52.430;16.936;2024-03-17T02:07:29;7.68;;;1.77;;
53903;SDS011;39812;52.430;16.936;2024-03-17T02:09:58;11.43;;;2.95;;
53903;SDS011;39812;52.430;16.936;2024-03-17T02:12:24;6.25;;;1.73;;
53903;SDS011;39812;52.430;16.936;2024-03-17T02:14:50;6.13;;;2.13;;
53903;SDS011;39812;52.430;16.936;2024-03-17T02:17:16;6.78;;;1.80;;
53903;SDS011;39812;52.430;16.936;2024-03-17T02:19:42;3.20;;;1.67;;
53903;SDS011;39812;52.430;16.936;2024-03-17T02:22:14;5.88;;;1.60;;
53903;SDS011;39812;52.430;16.936;2024-03-17T02:24:42;6.82;;;2.03;;
53903;SDS011;39812;52.430;16.936;2024-03-17T02:27:08;8.82;;;1.98;;
53903;SDS011;39812;52.430;16.936;2024-03-17T02:29:35;6.78;;;1.88;;
53903;SDS011;39812;52.430;16.936;2024-03-17T02:32:02;14.57;;;2.05;;
53903;SDS011;39812;52.430;16.936;2024-03-17T02:34:32;5.82;;;1.73;;
53903;SDS011;39812;52.430;16.936;2024-03-17T02:37:02;7.85;;;1.50;;
53903;SDS011;39812;52.430;16.936;2024-03-17T02:39:29;6.80;;;1.48;;
53903;SDS011;39812;52.430;16.936;2024-03-17T02:41:58;2.65;;;1.00;;
53903;SDS011;39812;52.430;16.936;2024-03-17T02:44:25;6.82;;;1.92;;
53903;SDS011;39812;52.430;16.936;2024-03-17T02:46:50;10.95;;;1.90;;
53903;SDS011;39812;52.430;16.936;2024-03-17T02:49:16;3.97;;;1.40;;
53903;SDS011;39812;52.430;16.936;2024-03-17T02:51:43;5.70;;;1.38;;
53903;SDS011;39812;52.430;16.936;2024-03-17T02:54:09;7.28;;;1.80;;
53903;SDS011;39812;52.430;16.936;2024-03-17T02:56:34;6.82;;;1.27;;
53903;SDS011;39812;52.430;16.936;2024-03-17T02:59:00;9.00;;;1.88;;
53903;SDS011;39812;52.430;16.936;2024-03-17T03:01:26;4.20;;;1.20;;
53903;SDS011;39812;52.430;16.936;2024-03-17T03:03:51;4.30;;;1.10;;
53903;SDS011;39812;52.430;16.936;2024-03-17T03:06:17;7.25;;;2.25;;
53903;SDS011;39812;52.430;16.936;2024-03-17T03:08:44;5.18;;;2.08;;
53903;SDS011;39812;52.430;16.936;2024-03-17T03:11:13;3.47;;;1.35;;
53903;SDS011;39812;52.430;16.936;2024-03-17T03:13:40;9.40;;;1.88;;
53903;SDS011;39812;52.430;16.936;2024-03-17T03:16:07;8.27;;;1.80;;
53903;SDS011;39812;52.430;16.936;2024-03-17T03:18:36;4.88;;;1.35;;
53903;SDS011;39812;52.430;16.936;2024-03-17T03:21:03;2.83;;;1.20;;
53903;SDS011;39812;52.430;16.936;2024-03-17T03:23:29;8.40;;;2.92;;
53903;SDS011;39812;52.430;16.936;2024-03-17T03:25:55;6.72;;;1.55;;
53903;SDS011;39812;52.430;16.936;2024-03-17T03:28:22;10.25;;;2.13;;
53903;SDS011;39812;52.430;16.936;2024-03-17T03:30:48;4.20;;;1.33;;
53903;SDS011;39812;52.430;16.936;2024-03-17T03:33:14;5.70;;;1.40;;
53903;SDS011;39812;52.430;16.936;2024-03-17T03:35:40;6.78;;;1.52;;
53903;SDS011;39812;52.430;16.936;2024-03-17T03:38:05;14.90;;;2.58;;
53903;SDS011;39812;52.430;16.936;2024-03-17T03:40:33;2.95;;;1.40;;
53903;SDS011;39812;52.430;16.936;2024-03-17T03:42:59;6.95;;;1.40;;
53903;SDS011;39812;52.430;16.936;2024-03-17T03:45:24;4.35;;;1.33;;
53903;SDS011;39812;52.430;16.936;2024-03-17T03:47:50;9.20;;;1.67;;
53903;SDS011;39812;52.430;16.936;2024-03-17T03:50:17;4.82;;;1.60;;
53903;SDS011;39812;52.430;16.936;2024-03-17T03:52:44;5.88;;;1.70;;
53903;SDS011;39812;52.430;16.936;2024-03-17T03:55:11;7.18;;;2.05;;
53903;SDS011;39812;52.430;16.936;2024-03-17T03:57:40;8.27;;;1.17;;
53903;SDS011;39812;52.430;16.936;2024-03-17T04:00:07;6.95;;;1.90;;
53903;SDS011;39812;52.430;16.936;2024-03-17T04:02:39;6.20;;;1.33;;
53903;SDS011;39812;52.430;16.936;2024-03-17T04:05:06;10.98;;;1.13;;
53903;SDS011;39812;52.430;16.936;2024-03-17T04:07:32;5.05;;;2.30;;
53903;SDS011;39812;52.430;16.936;2024-03-17T04:09:59;11.15;;;1.40;;
53903;SDS011;39812;52.430;16.936;2024-03-17T04:12:25;4.10;;;1.13;;
53903;SDS011;39812;52.430;16.936;2024-03-17T04:14:51;7.78;;;1.60;;
53903;SDS011;39812;52.430;16.936;2024-03-17T04:17:18;8.15;;;1.83;;
53903;SDS011;39812;52.430;16.936;2024-03-17T04:19:46;7.28;;;1.45;;
53903;SDS011;39812;52.430;16.936;2024-03-17T04:22:13;10.43;;;2.17;;
53903;SDS011;39812;52.430;16.936;2024-03-17T04:24:38;3.83;;;0.80;;
53903;SDS011;39812;52.430;16.936;2024-03-17T04:27:04;10.48;;;1.38;;
53903;SDS011;39812;52.430;16.936;2024-03-17T04:29:30;6.38;;;1.23;;
53903;SDS011;39812;52.430;16.936;2024-03-17T04:31:56;10.23;;;1.48;;
53903;SDS011;39812;52.430;16.936;2024-03-17T04:34:21;3.88;;;1.00;;
53903;SDS011;39812;52.430;16.936;2024-03-17T04:36:47;4.40;;;1.08;;
53903;SDS011;39812;52.430;16.936;2024-03-17T04:39:14;7.22;;;1.30;;
53903;SDS011;39812;52.430;16.936;2024-03-17T04:41:40;3.85;;;1.10;;
53903;SDS011;39812;52.430;16.936;2024-03-17T04:44:08;5.82;;;1.42;;
53903;SDS011;39812;52.430;16.936;2024-03-17T04:46:34;5.72;;;1.00;;
53903;SDS011;39812;52.430;16.936;2024-03-17T04:49:00;10.05;;;1.63;;
53903;SDS011;39812;52.430;16.936;2024-03-17T04:51:28;2.47;;;1.27;;
53903;SDS011;39812;52.430;16.936;2024-03-17T04:53:54;6.18;;;1.33;;
53903;SDS011;39812;52.430;16.936;2024-03-17T04:56:20;7.55;;;1.23;;
53903;SDS011;39812;52.430;16.936;2024-03-17T04:58:46;3.45;;;0.77;;
53903;SDS011;39812;52.430;16.936;2024-03-17T05:01:12;11.75;;;2.67;;
53903;SDS011;39812;52.430;16.936;2024-03-17T05:03:38;5.38;;;0.90;;
53903;SDS011;39812;52.430;16.936;2024-03-17T05:06:04;4.43;;;1.13;;
53903;SDS011;39812;52.430;16.936;2024-03-17T05:08:31;3.42;;;1.20;;
53903;SDS011;39812;52.430;16.936;2024-03-17T05:11:00;6.80;;;1.38;;
53903;SDS011;39812;52.430;16.936;2024-03-17T05:13:30;4.00;;;1.35;;
53903;SDS011;39812;52.430;16.936;2024-03-17T05:15:59;6.97;;;1.33;;
53903;SDS011;39812;52.430;16.936;2024-03-17T05:18:26;7.18;;;1.40;;
53903;SDS011;39812;52.430;16.936;2024-03-17T05:21:04;4.95;;;1.83;;
53903;SDS011;39812;52.430;16.936;2024-03-17T05:23:32;5.07;;;1.38;;
53903;SDS011;39812;52.430;16.936;2024-03-17T05:25:59;3.85;;;1.10;;
53903;SDS011;39812;52.430;16.936;2024-03-17T05:28:25;4.93;;;1.42;;
53903;SDS011;39812;52.430;16.936;2024-03-17T05:30:52;5.18;;;2.33;;
53903;SDS011;39812;52.430;16.936;2024-03-17T05:33:18;4.20;;;1.20;;
53903;SDS011;39812;52.430;16.936;2024-03-17T05:35:53;5.97;;;1.67;;
53903;SDS011;39812;52.430;16.936;2024-03-17T05:38:20;7.67;;;1.57;;
53903;SDS011;39812;52.430;16.936;2024-03-17T05:41:00;6.18;;;1.23;;
53903;SDS011;39812;52.430;16.936;2024-03-17T05:43:27;5.22;;;1.42;;
53903;SDS011;39812;52.430;16.936;2024-03-17T05:46:04;4.25;;;1.95;;
53903;SDS011;39812;52.430;16.936;2024-03-17T05:48:31;5.65;;;1.40;;
53903;SDS011;39812;52.430;16.936;2024-03-17T05:50:57;13.68;;;1.17;;
53903;SDS011;39812;52.430;16.936;2024-03-17T05:53:23;6.15;;;1.02;;
53903;SDS011;39812;52.430;16.936;2024-03-17T05:55:49;2.95;;;1.10;;
53903;SDS011;39812;52.430;16.936;2024-03-17T05:58:15;9.32;;;1.50;;
53903;SDS011;39812;52.430;16.936;2024-03-17T06:00:41;6.55;;;1.52;;
53903;SDS011;39812;52.430;16.936;2024-03-17T06:03:07;4.78;;;1.40;;
53903;SDS011;39812;52.430;16.936;2024-03-17T06:05:34;8.00;;;1.55;;
53903;SDS011;39812;52.430;16.936;2024-03-17T06:08:01;2.30;;;0.90;;
53903;SDS011;39812;52.430;16.936;2024-03-17T06:10:31;4.65;;;1.10;;
53903;SDS011;39812;52.430;16.936;2024-03-17T06:12:58;6.80;;;1.25;;
53903;SDS011;39812;52.430;16.936;2024-03-17T06:15:24;6.68;;;2.03;;
53903;SDS011;39812;52.430;16.936;2024-03-17T06:17:51;6.63;;;1.30;;
53903;SDS011;39812;52.430;16.936;2024-03-17T06:20:18;10.02;;;3.08;;
53903;SDS011;39812;52.430;16.936;2024-03-17T06:22:44;4.85;;;1.52;;
53903;SDS011;39812;52.430;16.936;2024-03-17T06:25:10;4.07;;;1.35;;
53903;SDS011;39812;52.430;16.936;2024-03-17T06:27:36;5.40;;;1.17;;
53903;SDS011;39812;52.430;16.936;2024-03-17T06:30:02;7.43;;;1.65;;
53903;SDS011;39812;52.430;16.936;2024-03-17T06:32:29;6.47;;;1.83;;
53903;SDS011;39812;52.430;16.936;2024-03-17T06:34:56;5.93;;;1.02;;
53903;SDS011;39812;52.430;16.936;2024-03-17T06:37:23;5.97;;;2.05;;
53903;SDS011;39812;52.430;16.936;2024-03-17T06:39:49;3.17;;;1.20;;
53903;SDS011;39812;52.430;16.936;2024-03-17T06:42:15;4.32;;;1.25;;
53903;SDS011;39812;52.430;16.936;2024-03-17T06:44:40;10.07;;;2.00;;
53903;SDS011;39812;52.430;16.936;2024-03-17T06:47:06;4.97;;;1.25;;
53903;SDS011;39812;52.430;16.936;2024-03-17T06:49:31;6.63;;;1.20;;
53903;SDS011;39812;52.430;16.936;2024-03-17T06:51:58;4.47;;;1.45;;
53903;SDS011;39812;52.430;16.936;2024-03-17T06:54:23;6.38;;;1.10;;
53903;SDS011;39812;52.430;16.936;2024-03-17T06:56:49;7.35;;;1.42;;
53903;SDS011;39812;52.430;16.936;2024-03-17T06:59:17;7.97;;;1.70;;
53903;SDS011;39812;52.430;16.936;2024-03-17T07:01:43;5.28;;;1.00;;
53903;SDS011;39812;52.430;16.936;2024-03-17T07:04:09;8.70;;;1.48;;
53903;SDS011;39812;52.430;16.936;2024-03-17T07:06:35;8.52;;;1.55;;
53903;SDS011;39812;52.430;16.936;2024-03-17T07:09:01;3.70;;;1.35;;
53903;SDS011;39812;52.430;16.936;2024-03-17T07:11:27;2.45;;;0.95;;
53903;SDS011;39812;52.430;16.936;2024-03-17T07:13:53;5.47;;;1.25;;
53903;SDS011;39812;52.430;16.936;2024-03-17T07:16:19;3.40;;;1.35;;
53903;SDS011;39812;52.430;16.936;2024-03-17T07:18:50;3.13;;;0.95;;
53903;SDS011;39812;52.430;16.936;2024-03-17T07:21:18;6.63;;;1.60;;
53903;SDS011;39812;52.430;16.936;2024-03-17T07:23:44;7.10;;;1.08;;
53903;SDS011;39812;52.430;16.936;2024-03-17T07:26:10;2.70;;;1.20;;
53903;SDS011;39812;52.430;16.936;2024-03-17T07:28:35;3.85;;;1.45;;
53903;SDS011;39812;52.430;16.936;2024-03-17T07:31:05;5.05;;;1.20;;
53903;SDS011;39812;52.430;16.936;2024-03-17T07:33:33;3.78;;;1.33;;
53903;SDS011;39812;52.430;16.936;2024-03-17T07:35:59;1.65;;;0.95;;
53903;SDS011;39812;52.430;16.936;2024-03-17T07:38:26;5.50;;;1.77;;
53903;SDS011;39812;52.430;16.936;2024-03-17T07:41:00;5.20;;;1.80;;
53903;SDS011;39812;52.430;16.936;2024-03-17T07:43:36;7.75;;;1.70;;
53903;SDS011;39812;52.430;16.936;2024-03-17T07:48:29;3.40;;;1.27;;
53903;SDS011;39812;52.430;16.936;2024-03-17T07:50:59;4.10;;;1.40;;
53903;SDS011;39812;52.430;16.936;2024-03-17T07:53:34;4.10;;;1.25;;
53903;SDS011;39812;52.430;16.936;2024-03-17T07:58:30;3.15;;;1.60;;
53903;SDS011;39812;52.430;16.936;2024-03-17T08:01:00;5.30;;;1.63;;
53903;SDS011;39812;52.430;16.936;2024-03-17T08:03:27;4.80;;;1.30;;
53903;SDS011;39812;52.430;16.936;2024-03-17T08:05:54;3.38;;;1.38;;
53903;SDS011;39812;52.430;16.936;2024-03-17T08:08:20;5.00;;;1.60;;
53903;SDS011;39812;52.430;16.936;2024-03-17T08:10:46;11.15;;;3.58;;
53903;SDS011;39812;52.430;16.936;2024-03-17T08:13:15;3.47;;;1.55;;
53903;SDS011;39812;52.430;16.936;2024-03-17T08:15:42;3.45;;;2.00;;
53903;SDS011;39812;52.430;16.936;2024-03-17T08:18:08;4.25;;;1.70;;
53903;SDS011;39812;52.430;16.936;2024-03-17T08:20:38;9.05;;;2.03;;
53903;SDS011;39812;52.430;16.936;2024-03-17T08:23:04;5.25;;;1.67;;
53903;SDS011;39812;52.430;16.936;2024-03-17T08:25:31;6.18;;;2.15;;
53903;SDS011;39812;52.430;16.936;2024-03-17T08:27:57;5.13;;;1.75;;
53903;SDS011;39812;52.430;16.936;2024-03-17T08:30:22;6.90;;;2.70;;
53903;SDS011;39812;52.430;16.936;2024-03-17T08:32:48;2.90;;;1.50;;
53903;SDS011;39812;52.430;16.936;2024-03-17T08:35:14;7.53;;;2.45;;
53903;SDS011;39812;52.430;16.936;2024-03-17T08:37:40;6.45;;;1.75;;
53903;SDS011;39812;52.430;16.936;2024-03-17T08:40:06;6.05;;;2.35;;
53903;SDS011;39812;52.430;16.936;2024-03-17T08:42:32;8.75;;;2.35;;
53903;SDS011;39812;52.430;16.936;2024-03-17T08:44:58;5.57;;;2.20;;
53903;SDS011;39812;52.430;16.936;2024-03-17T08:47:24;5.85;;;1.95;;
53903;SDS011;39812;52.430;16.936;2024-03-17T08:49:52;4.40;;;2.05;;
53903;SDS011;39812;52.430;16.936;2024-03-17T08:52:18;5.65;;;2.20;;
53903;SDS011;39812;52.430;16.936;2024-03-17T08:54:47;5.78;;;2.47;;
53903;SDS011;39812;52.430;16.936;2024-03-17T08:57:13;3.65;;;2.25;;
53903;SDS011;39812;52.430;16.936;2024-03-17T08:59:39;6.43;;;2.30;;
53903;SDS011;39812;52.430;16.936;2024-03-17T09:02:04;8.63;;;2.38;;
53903;SDS011;39812;52.430;16.936;2024-03-17T09:04:31;3.67;;;1.45;;
53903;SDS011;39812;52.430;16.936;2024-03-17T09:06:57;6.80;;;2.63;;
53903;SDS011;39812;52.430;16.936;2024-03-17T09:09:25;4.57;;;1.73;;
53903;SDS011;39812;52.430;16.936;2024-03-17T09:11:51;3.10;;;1.83;;
53903;SDS011;39812;52.430;16.936;2024-03-17T09:14:17;4.22;;;1.90;;
53903;SDS011;39812;52.430;16.936;2024-03-17T09:16:43;4.10;;;1.85;;
53903;SDS011;39812;52.430;16.936;2024-03-17T09:19:10;3.20;;;1.55;;
53903;SDS011;39812;52.430;16.936;2024-03-17T09:21:36;5.85;;;1.80;;
53903;SDS011;39812;52.430;16.936;2024-03-17T09:24:03;5.57;;;1.52;;
53903;SDS011;39812;52.430;16.936;2024-03-17T09:26:29;4.30;;;1.75;;
53903;SDS011;39812;52.430;16.936;2024-03-17T09:28:55;3.78;;;1.65;;
53903;SDS011;39812;52.430;16.936;2024-03-17T09:31:21;3.20;;;1.63;;
53903;SDS011;39812;52.430;16.936;2024-03-17T09:33:46;3.63;;;1.70;;
53903;SDS011;39812;52.430;16.936;2024-03-17T09:36:13;4.78;;;2.13;;
53903;SDS011;39812;52.430;16.936;2024-03-17T09:38:39;6.45;;;1.60;;
53903;SDS011;39812;52.430;16.936;2024-03-17T09:41:07;3.58;;;1.58;;
53903;SDS011;39812;52.430;16.936;2024-03-17T09:43:41;2.80;;;0.98;;
53903;SDS011;39812;52.430;16.936;2024-03-17T09:46:08;3.13;;;0.93;;
53903;SDS011;39812;52.430;16.936;2024-03-17T09:48:35;3.03;;;1.10;;
53903;SDS011;39812;52.430;16.936;2024-03-17T09:51:02;1.60;;;0.90;;
53903;SDS011;39812;52.430;16.936;2024-03-17T09:53:29;3.00;;;1.08;;
53903;SDS011;39812;52.430;16.936;2024-03-17T09:55:57;2.35;;;1.35;;
53903;SDS011;39812;52.430;16.936;2024-03-17T09:58:25;2.97;;;1.40;;
53903;SDS011;39812;52.430;16.936;2024-03-17T10:00:51;3.20;;;1.75;;
53903;SDS011;39812;52.430;16.936;2024-03-17T10:03:59;5.43;;;1.20;;
53903;SDS011;39812;52.430;16.936;2024-03-17T10:06:10;7.15;;;1.73;;
53903;SDS011;39812;52.430;16.936;2024-03-17T10:08:49;2.50;;;1.08;;
53903;SDS011;39812;52.430;16.936;2024-03-17T10:11:19;2.72;;;1.25;;
53903;SDS011;39812;52.430;16.936;2024-03-17T10:13:47;1.67;;;0.60;;
53903;SDS011;39812;52.430;16.936;2024-03-17T10:16:31;1.20;;;0.77;;
53903;SDS011;39812;52.430;16.936;2024-03-17T10:19:15;3.55;;;0.70;;
53903;SDS011;39812;52.430;16.936;2024-03-17T10:21:46;2.67;;;0.80;;
53903;SDS011;39812;52.430;16.936;2024-03-17T10:24:24;1.02;;;0.80;;
53903;SDS011;39812;52.430;16.936;2024-03-17T10:26:56;1.67;;;1.00;;
53903;SDS011;39812;52.430;16.936;2024-03-17T10:29:23;2.60;;;0.60;;
53903;SDS011;39812;52.430;16.936;2024-03-17T10:31:51;2.58;;;0.80;;
53903;SDS011;39812;52.430;16.936;2024-03-17T10:34:21;1.83;;;1.05;;
53903;SDS011;39812;52.430;16.936;2024-03-17T10:36:51;1.63;;;1.02;;
53903;SDS011;39812;52.430;16.936;2024-03-17T10:39:30;1.10;;;0.85;;
53903;SDS011;39812;52.430;16.936;2024-03-17T10:41:56;0.88;;;0.73;;
53903;SDS011;39812;52.430;16.936;2024-03-17T10:44:27;2.05;;;1.00;;
53903;SDS011;39812;52.430;16.936;2024-03-17T10:46:54;2.40;;;1.00;;
53903;SDS011;39812;52.430;16.936;2024-03-17T10:49:26;4.60;;;1.55;;
53903;SDS011;39812;52.430;16.936;2024-03-17T10:51:56;4.15;;;1.67;;
53903;SDS011;39812;52.430;16.936;2024-03-17T10:54:33;2.42;;;1.27;;
53903;SDS011;39812;52.430;16.936;2024-03-17T10:59:50;2.70;;;1.40;;
53903;SDS011;39812;52.430;16.936;2024-03-17T11:04:44;3.45;;;1.30;;
53903;SDS011;39812;52.430;16.936;2024-03-17T11:07:11;1.88;;;1.23;;
53903;SDS011;39812;52.430;16.936;2024-03-17T11:09:42;3.90;;;1.98;;
53903;SDS011;39812;52.430;16.936;2024-03-17T11:17:47;5.80;;;2.45;;
53903;SDS011;39812;52.430;16.936;2024-03-17T11:20:24;4.47;;;2.30;;
53903;SDS011;39812;52.430;16.936;2024-03-17T11:22:52;3.83;;;1.90;;
53903;SDS011;39812;52.430;16.936;2024-03-17T11:25:36;5.50;;;2.50;;
53903;SDS011;39812;52.430;16.936;2024-03-17T11:28:03;6.13;;;2.28;;
53903;SDS011;39812;52.430;16.936;2024-03-17T11:39:11;5.00;;;2.10;;
53903;SDS011;39812;52.430;16.936;2024-03-17T11:41:46;4.93;;;2.13;;
53903;SDS011;39812;52.430;16.936;2024-03-17T11:44:13;4.80;;;2.13;;
53903;SDS011;39812;52.430;16.936;2024-03-17T11:46:46;5.03;;;2.25;;
53903;SDS011;39812;52.430;16.936;2024-03-17T11:51:54;7.40;;;3.15;;
53903;SDS011;39812;52.430;16.936;2024-03-17T11:54:24;6.20;;;2.88;;
53903;SDS011;39812;52.430;16.936;2024-03-17T11:56:55;8.65;;;3.08;;
53903;SDS011;39812;52.430;16.936;2024-03-17T11:59:28;5.93;;;2.15;;
53903;SDS011;39812;52.430;16.936;2024-03-17T12:01:54;4.32;;;2.35;;
53903;SDS011;39812;52.430;16.936;2024-03-17T12:04:21;4.60;;;2.50;;
53903;SDS011;39812;52.430;16.936;2024-03-17T12:06:48;6.40;;;2.42;;
53903;SDS011;39812;52.430;16.936;2024-03-17T12:11:51;5.13;;;1.80;;
53903;SDS011;39812;52.430;16.936;2024-03-17T12:14:29;6.03;;;2.20;;
53903;SDS011;39812;52.430;16.936;2024-03-17T12:16:56;4.53;;;2.45;;
53903;SDS011;39812;52.430;16.936;2024-03-17T12:19:27;4.00;;;1.73;;
53903;SDS011;39812;52.430;16.936;2024-03-17T12:21:54;3.20;;;1.70;;
53903;SDS011;39812;52.430;16.936;2024-03-17T12:24:25;5.28;;;2.22;;
53903;SDS011;39812;52.430;16.936;2024-03-17T12:26:52;2.35;;;1.17;;
53903;SDS011;39812;52.430;16.936;2024-03-17T12:29:36;3.00;;;1.50;;
53903;SDS011;39812;52.430;16.936;2024-03-17T12:34:36;0.82;;;0.80;;
53903;SDS011;39812;52.430;16.936;2024-03-17T12:37:02;1.05;;;0.95;;
53903;SDS011;39812;52.430;16.936;2024-03-17T12:39:29;1.27;;;0.80;;
53903;SDS011;39812;52.430;16.936;2024-03-17T12:42:02;0.95;;;0.73;;
53903;SDS011;39812;52.430;16.936;2024-03-17T12:44:32;1.98;;;0.88;;
53903;SDS011;39812;52.430;16.936;2024-03-17T12:47:02;1.60;;;0.77;;
53903;SDS011;39812;52.430;16.936;2024-03-17T12:49:30;0.60;;;0.60;;
53903;SDS011;39812;52.430;16.936;2024-03-17T12:52:02;0.90;;;0.70;;
53903;SDS011;39812;52.430;16.936;2024-03-17T12:54:28;1.10;;;0.77;;
53903;SDS011;39812;52.430;16.936;2024-03-17T12:57:04;1.08;;;0.65;;
53903;SDS011;39812;52.430;16.936;2024-03-17T12:59:49;1.55;;;0.93;;
53903;SDS011;39812;52.430;16.936;2024-03-17T13:02:34;1.85;;;1.00;;
53903;SDS011;39812;52.430;16.936;2024-03-17T13:07:43;0.98;;;0.82;;
53903;SDS011;39812;52.430;16.936;2024-03-17T13:10:12;2.35;;;0.88;;
53903;SDS011;39812;52.430;16.936;2024-03-17T13:12:39;1.10;;;0.80;;
53903;SDS011;39812;52.430;16.936;2024-03-17T13:15:06;0.98;;;0.75;;
53903;SDS011;39812;52.430;16.936;2024-03-17T13:17:39;4.78;;;1.10;;
53903;SDS011;39812;52.430;16.936;2024-03-17T13:20:12;8.00;;;1.90;;
53903;SDS011;39812;52.430;16.936;2024-03-17T13:22:40;0.60;;;0.60;;
53903;SDS011;39812;52.430;16.936;2024-03-17T13:25:16;0.55;;;0.50;;
53903;SDS011;39812;52.430;16.936;2024-03-17T13:27:43;2.45;;;1.50;;
53903;SDS011;39812;52.430;16.936;2024-03-17T13:30:12;1.63;;;0.98;;
53903;SDS011;39812;52.430;16.936;2024-03-17T13:32:42;1.08;;;0.95;;
53903;SDS011;39812;52.430;16.936;2024-03-17T13:35:15;1.13;;;0.70;;
53903;SDS011;39812;52.430;16.936;2024-03-17T13:37:47;2.17;;;1.23;;
53903;SDS011;39812;52.430;16.936;2024-03-17T13:40:14;1.10;;;0.80;;
53903;SDS011;39812;52.430;16.936;2024-03-17T13:42:48;1.33;;;0.80;;
53903;SDS011;39812;52.430;16.936;2024-03-17T13:45:15;0.90;;;0.68;;
53903;SDS011;39812;52.430;16.936;2024-03-17T13:47:43;0.75;;;0.57;;
53903;SDS011;39812;52.430;16.936;2024-03-17T13:50:31;0.88;;;0.75;;
53903;SDS011;39812;52.430;16.936;2024-03-17T13:52:57;1.90;;;0.82;;
53903;SDS011;39812;52.430;16.936;2024-03-17T13:55:23;1.83;;;0.70;;
53903;SDS011;39812;52.430;16.936;2024-03-17T13:57:51;0.85;;;0.63;;
53903;SDS011;39812;52.430;16.936;2024-03-17T14:00:19;0.50;;;0.50;;
53903;SDS011;39812;52.430;16.936;2024-03-17T14:02:46;0.60;;;0.55;;
53903;SDS011;39812;52.430;16.936;2024-03-17T14:05:13;0.77;;;0.55;;
53903;SDS011;39812;52.430;16.936;2024-03-17T14:07:41;1.63;;;0.57;;
53903;SDS011;39812;52.430;16.936;2024-03-17T14:10:08;1.60;;;0.95;;
53903;SDS011;39812;52.430;16.936;2024-03-17T14:12:35;0.57;;;0.57;;
53903;SDS011;39812;52.430;16.936;2024-03-17T14:15:04;0.75;;;0.75;;
53903;SDS011;39812;52.430;16.936;2024-03-17T14:17:31;1.15;;;0.77;;
53903;SDS011;39812;52.430;16.936;2024-03-17T14:19:57;1.50;;;0.80;;
53903;SDS011;39812;52.430;16.936;2024-03-17T14:22:23;1.60;;;1.02;;
53903;SDS011;39812;52.430;16.936;2024-03-17T14:24:49;0.90;;;0.75;;
53903;SDS011;39812;52.430;16.936;2024-03-17T14:27:15;1.23;;;0.68;;
53903;SDS011;39812;52.430;16.936;2024-03-17T14:29:41;1.13;;;0.50;;
53903;SDS011;39812;52.430;16.936;2024-03-17T14:32:08;0.65;;;0.40;;
53903;SDS011;39812;52.430;16.936;2024-03-17T14:34:34;1.63;;;0.85;;
53903;SDS011;39812;52.430;16.936;2024-03-17T14:37:02;0.68;;;0.60;;
53903;SDS011;39812;52.430;16.936;2024-03-17T14:39:28;2.03;;;1.15;;
53903;SDS011;39812;52.430;16.936;2024-03-17T14:41:54;0.55;;;0.50;;
53903;SDS011;39812;52.430;16.936;2024-03-17T14:44:20;1.65;;;0.90;;
53903;SDS011;39812;52.430;16.936;2024-03-17T14:46:46;1.85;;;1.17;;
53903;SDS011;39812;52.430;16.936;2024-03-17T14:49:12;1.33;;;1.15;;
53903;SDS011;39812;52.430;16.936;2024-03-17T14:51:38;1.40;;;0.60;;
53903;SDS011;39812;52.430;16.936;2024-03-17T14:54:03;1.38;;;0.60;;
53903;SDS011;39812;52.430;16.936;2024-03-17T14:56:30;1.58;;;0.73;;
53903;SDS011;39812;52.430;16.936;2024-03-17T14:58:56;0.73;;;0.60;;
53903;SDS011;39812;52.430;16.936;2024-03-17T15:01:22;0.73;;;0.50;;
53903;SDS011;39812;52.430;16.936;2024-03-17T15:03:48;1.35;;;0.80;;
53903;SDS011;39812;52.430;16.936;2024-03-17T15:06:14;0.80;;;0.70;;
53903;SDS011;39812;52.430;16.936;2024-03-17T15:08:43;0.60;;;0.60;;
53903;SDS011;39812;52.430;16.936;2024-03-17T15:11:09;1.33;;;0.80;;